Wheat Ridge, CO (80033)

9:42 PM MDT on May 28, 2015 (GMT -0600)
Crown Hill Park | | Change Station
CLOSE
Current Station
Personal Weather Station
Location: Wheat Ridge, CO
Elevation: 5480 ft
Nearby Weather Stations

Elev 5480 ft 39.77 °N, 105.10 °W | Updated 3 minutes ago

Partly Cloudy
Partly Cloudy
60.7 °F
Feels Like 60.7 °F
N
16.0
Wind Variable Wind from NNW

Today
High -- | Low -- °F
--% Chance of Precip.
Yesterday
High -- | Low -- °F
Precip. -- in
5:36 AM 8:19 PM
Waxing Gibbous, 80% visible
Pressure 30.09 in
Visibility 30.0 miles
Clouds Scattered Clouds 6000 ft
Mostly Cloudy 10000 ft
Dew Point 38 °F
Humidity 43%
Rainfall 0.02 in
Snow Depth Not available.
UV 0 out of 12
Pollen 7.50 out of 12
Air Quality Not available.
Flu Activity Sporadic
METAR KBJC 290245Z 26017G25KT 30SM SCT060 BKN100 15/02 A3009 RMK LTGCG DSNT E

More Conditions Fewer Conditions

Pressure 30.09 in
Visibility 30.0 miles
Clouds Scattered Clouds 6000 ft
Mostly Cloudy 10000 ft
Dew Point 38 °F
Humidity 43%
Rainfall 0.02 in
Snow Depth Not available.
UV 0 out of 12
Pollen 7.50 out of 12
Air Quality Not available.
Flu Activity Sporadic
METAR KBJC 290245Z 26017G25KT 30SM SCT060 BKN100 15/02 A3009 RMK LTGCG DSNT E

More Conditions Fewer Conditions

10-Day Weather Forecast

Almanac

Astronomy

May. 28, 2015 Rise Set
Actual Time
Civil Twilight
Nautical Twilight
Astronomical Twilight
Moon
Length of Visible Light
Length of Day
Tomorrow will be .
, % of the Moon is Illuminated

Today's Extremes

State Highs State Lows

Community

WunderPhotos

Upload Photos

1,825,170 photos uploaded!

WunderBlogs® & News

Nearby

Air Quality

  Air Quality AQ Index Pollutant
Not available.

Snow Depth

Station Depth Elevation

Earthquake Activity

City Distance Mag. Time & Date
Minimum magnitude displayed is 2.5.

Coastal Water Temperatures

Place Temperature

Stations

Nearby Weather Stations

Station Location Temp. Windchill Dew Point Humidity Wind Precip. Elev Updated Type